sensor_id;sensor_type;location;lat;lon;timestamp;P1;durP1;ratioP1;P2;durP2;ratioP2
21901;SDS011;11115;46.038;14.612;2023-05-09T00:01:31;11.20;;;4.17;;
21901;SDS011;11115;46.038;14.612;2023-05-09T00:04:01;10.73;;;4.82;;
21901;SDS011;11115;46.038;14.612;2023-05-09T00:06:32;7.53;;;3.73;;
21901;SDS011;11115;46.038;14.612;2023-05-09T00:09:02;9.53;;;3.27;;
21901;SDS011;11115;46.038;14.612;2023-05-09T00:11:35;4.53;;;2.53;;
21901;SDS011;11115;46.038;14.612;2023-05-09T00:14:09;2.83;;;2.23;;
21901;SDS011;11115;46.038;14.612;2023-05-09T00:16:47;3.90;;;2.17;;
21901;SDS011;11115;46.038;14.612;2023-05-09T00:19:24;4.10;;;2.57;;
21901;SDS011;11115;46.038;14.612;2023-05-09T00:21:59;5.60;;;2.50;;
21901;SDS011;11115;46.038;14.612;2023-05-09T00:24:37;5.80;;;3.03;;
21901;SDS011;11115;46.038;14.612;2023-05-09T00:27:10;6.47;;;3.03;;
21901;SDS011;11115;46.038;14.612;2023-05-09T00:29:55;3.27;;;2.40;;
21901;SDS011;11115;46.038;14.612;2023-05-09T00:32:31;2.93;;;2.60;;
21901;SDS011;11115;46.038;14.612;2023-05-09T00:35:09;3.47;;;2.25;;
21901;SDS011;11115;46.038;14.612;2023-05-09T00:37:42;3.38;;;2.33;;
21901;SDS011;11115;46.038;14.612;2023-05-09T00:40:12;4.32;;;2.28;;
21901;SDS011;11115;46.038;14.612;2023-05-09T00:42:49;4.00;;;2.57;;
21901;SDS011;11115;46.038;14.612;2023-05-09T00:45:25;5.40;;;2.87;;
21901;SDS011;11115;46.038;14.612;2023-05-09T00:47:58;5.33;;;3.13;;
21901;SDS011;11115;46.038;14.612;2023-05-09T00:50:29;3.90;;;2.50;;
21901;SDS011;11115;46.038;14.612;2023-05-09T00:53:00;4.32;;;2.65;;
21901;SDS011;11115;46.038;14.612;2023-05-09T00:55:45;2.90;;;2.50;;
21901;SDS011;11115;46.038;14.612;2023-05-09T00:58:16;4.00;;;2.60;;
21901;SDS011;11115;46.038;14.612;2023-05-09T01:00:53;3.13;;;2.50;;
21901;SDS011;11115;46.038;14.612;2023-05-09T01:03:30;4.23;;;2.73;;
21901;SDS011;11115;46.038;14.612;2023-05-09T01:09:04;4.00;;;2.77;;
21901;SDS011;11115;46.038;14.612;2023-05-09T01:11:49;3.83;;;3.00;;
21901;SDS011;11115;46.038;14.612;2023-05-09T01:14:56;4.47;;;2.80;;
21901;SDS011;11115;46.038;14.612;2023-05-09T01:17:58;4.67;;;3.07;;
21901;SDS011;11115;46.038;14.612;2023-05-09T01:20:35;3.20;;;2.73;;
21901;SDS011;11115;46.038;14.612;2023-05-09T01:26:43;4.37;;;2.73;;
21901;SDS011;11115;46.038;14.612;2023-05-09T01:32:29;5.10;;;2.60;;
21901;SDS011;11115;46.038;14.612;2023-05-09T01:35:09;4.40;;;3.03;;
21901;SDS011;11115;46.038;14.612;2023-05-09T01:37:46;3.03;;;1.97;;
21901;SDS011;11115;46.038;14.612;2023-05-09T01:40:17;3.80;;;3.00;;
21901;SDS011;11115;46.038;14.612;2023-05-09T01:43:01;4.40;;;2.63;;
21901;SDS011;11115;46.038;14.612;2023-05-09T01:45:39;5.00;;;2.90;;
21901;SDS011;11115;46.038;14.612;2023-05-09T01:48:12;3.88;;;2.83;;
21901;SDS011;11115;46.038;14.612;2023-05-09T01:50:45;4.60;;;3.13;;
21901;SDS011;11115;46.038;14.612;2023-05-09T01:53:20;3.73;;;2.37;;
21901;SDS011;11115;46.038;14.612;2023-05-09T01:55:57;4.40;;;2.23;;
21901;SDS011;11115;46.038;14.612;2023-05-09T01:58:41;3.22;;;2.50;;
21901;SDS011;11115;46.038;14.612;2023-05-09T02:01:17;6.23;;;2.57;;
21901;SDS011;11115;46.038;14.612;2023-05-09T02:03:55;4.57;;;2.70;;
21901;SDS011;11115;46.038;14.612;2023-05-09T02:06:26;3.77;;;2.30;;
21901;SDS011;11115;46.038;14.612;2023-05-09T02:08:57;3.60;;;2.83;;
21901;SDS011;11115;46.038;14.612;2023-05-09T02:11:30;2.80;;;2.50;;
21901;SDS011;11115;46.038;14.612;2023-05-09T02:14:03;3.57;;;2.30;;
21901;SDS011;11115;46.038;14.612;2023-05-09T02:16:48;2.97;;;2.30;;
21901;SDS011;11115;46.038;14.612;2023-05-09T02:19:20;5.23;;;3.03;;
21901;SDS011;11115;46.038;14.612;2023-05-09T02:21:48;3.97;;;2.27;;
21901;SDS011;11115;46.038;14.612;2023-05-09T02:24:21;4.70;;;3.17;;
21901;SDS011;11115;46.038;14.612;2023-05-09T02:26:54;3.15;;;2.22;;
21901;SDS011;11115;46.038;14.612;2023-05-09T02:29:48;3.73;;;2.60;;
21901;SDS011;11115;46.038;14.612;2023-05-09T02:32:24;3.60;;;2.40;;
21901;SDS011;11115;46.038;14.612;2023-05-09T02:35:03;4.23;;;2.60;;
21901;SDS011;11115;46.038;14.612;2023-05-09T02:37:37;3.30;;;2.27;;
21901;SDS011;11115;46.038;14.612;2023-05-09T02:42:46;2.10;;;1.87;;
21901;SDS011;11115;46.038;14.612;2023-05-09T02:45:16;4.60;;;2.87;;
21901;SDS011;11115;46.038;14.612;2023-05-09T02:48:02;5.07;;;3.13;;
21901;SDS011;11115;46.038;14.612;2023-05-09T02:50:39;6.03;;;2.87;;
21901;SDS011;11115;46.038;14.612;2023-05-09T02:53:18;3.45;;;2.33;;
21901;SDS011;11115;46.038;14.612;2023-05-09T02:55:52;5.13;;;2.70;;
21901;SDS011;11115;46.038;14.612;2023-05-09T02:58:23;8.13;;;4.20;;
21901;SDS011;11115;46.038;14.612;2023-05-09T03:00:57;4.30;;;2.47;;
21901;SDS011;11115;46.038;14.612;2023-05-09T03:03:33;8.33;;;2.83;;
21901;SDS011;11115;46.038;14.612;2023-05-09T03:06:07;5.70;;;2.47;;
21901;SDS011;11115;46.038;14.612;2023-05-09T03:08:35;3.00;;;2.40;;
21901;SDS011;11115;46.038;14.612;2023-05-09T03:11:14;3.13;;;2.23;;
21901;SDS011;11115;46.038;14.612;2023-05-09T03:13:47;3.23;;;2.57;;
21901;SDS011;11115;46.038;14.612;2023-05-09T03:16:18;3.07;;;1.93;;
21901;SDS011;11115;46.038;14.612;2023-05-09T03:18:49;3.07;;;2.40;;
21901;SDS011;11115;46.038;14.612;2023-05-09T03:21:19;4.40;;;2.57;;
21901;SDS011;11115;46.038;14.612;2023-05-09T03:23:56;3.33;;;2.20;;
21901;SDS011;11115;46.038;14.612;2023-05-09T03:26:27;7.07;;;2.65;;
21901;SDS011;11115;46.038;14.612;2023-05-09T03:29:01;5.67;;;2.57;;
21901;SDS011;11115;46.038;14.612;2023-05-09T03:31:37;5.77;;;2.30;;
21901;SDS011;11115;46.038;14.612;2023-05-09T03:34:29;6.50;;;2.50;;
21901;SDS011;11115;46.038;14.612;2023-05-09T03:37:04;3.13;;;1.93;;
21901;SDS011;11115;46.038;14.612;2023-05-09T03:39:37;2.70;;;2.00;;
21901;SDS011;11115;46.038;14.612;2023-05-09T03:42:09;3.23;;;2.50;;
21901;SDS011;11115;46.038;14.612;2023-05-09T03:44:54;3.77;;;2.57;;
21901;SDS011;11115;46.038;14.612;2023-05-09T03:47:37;3.50;;;2.53;;
21901;SDS011;11115;46.038;14.612;2023-05-09T03:50:21;4.40;;;2.40;;
21901;SDS011;11115;46.038;14.612;2023-05-09T03:52:57;4.97;;;3.17;;
21901;SDS011;11115;46.038;14.612;2023-05-09T03:55:27;6.83;;;2.30;;
21901;SDS011;11115;46.038;14.612;2023-05-09T03:58:00;3.90;;;2.20;;
21901;SDS011;11115;46.038;14.612;2023-05-09T04:00:34;2.27;;;2.07;;
21901;SDS011;11115;46.038;14.612;2023-05-09T04:03:21;4.37;;;2.27;;
21901;SDS011;11115;46.038;14.612;2023-05-09T04:05:55;4.33;;;2.37;;
21901;SDS011;11115;46.038;14.612;2023-05-09T04:08:34;4.37;;;2.60;;
21901;SDS011;11115;46.038;14.612;2023-05-09T04:11:07;5.07;;;2.70;;
21901;SDS011;11115;46.038;14.612;2023-05-09T04:13:44;6.37;;;2.43;;
21901;SDS011;11115;46.038;14.612;2023-05-09T04:16:39;3.30;;;2.10;;
21901;SDS011;11115;46.038;14.612;2023-05-09T04:19:19;6.50;;;2.40;;
21901;SDS011;11115;46.038;14.612;2023-05-09T04:21:58;2.87;;;2.10;;
21901;SDS011;11115;46.038;14.612;2023-05-09T04:24:32;3.67;;;2.23;;
21901;SDS011;11115;46.038;14.612;2023-05-09T04:27:22;2.77;;;2.20;;
21901;SDS011;11115;46.038;14.612;2023-05-09T04:29:58;3.70;;;1.63;;
21901;SDS011;11115;46.038;14.612;2023-05-09T04:32:29;3.77;;;1.70;;
21901;SDS011;11115;46.038;14.612;2023-05-09T04:35:06;2.53;;;1.87;;
21901;SDS011;11115;46.038;14.612;2023-05-09T04:37:42;2.83;;;1.90;;
21901;SDS011;11115;46.038;14.612;2023-05-09T04:40:17;3.93;;;2.00;;
21901;SDS011;11115;46.038;14.612;2023-05-09T04:42:57;2.77;;;1.80;;
21901;SDS011;11115;46.038;14.612;2023-05-09T04:45:31;3.10;;;1.83;;
21901;SDS011;11115;46.038;14.612;2023-05-09T04:48:08;2.47;;;1.70;;
21901;SDS011;11115;46.038;14.612;2023-05-09T04:50:39;2.78;;;1.92;;
21901;SDS011;11115;46.038;14.612;2023-05-09T04:53:11;4.40;;;2.47;;
21901;SDS011;11115;46.038;14.612;2023-05-09T04:55:44;3.33;;;2.43;;
21901;SDS011;11115;46.038;14.612;2023-05-09T04:58:30;2.93;;;2.20;;
21901;SDS011;11115;46.038;14.612;2023-05-09T05:01:11;6.32;;;2.38;;
21901;SDS011;11115;46.038;14.612;2023-05-09T05:03:45;5.57;;;2.63;;
21901;SDS011;11115;46.038;14.612;2023-05-09T05:06:16;3.37;;;2.10;;
21901;SDS011;11115;46.038;14.612;2023-05-09T05:08:47;2.10;;;1.90;;
21901;SDS011;11115;46.038;14.612;2023-05-09T05:11:23;5.07;;;1.80;;
21901;SDS011;11115;46.038;14.612;2023-05-09T05:13:59;2.63;;;2.07;;
21901;SDS011;11115;46.038;14.612;2023-05-09T05:16:30;3.28;;;2.20;;
21901;SDS011;11115;46.038;14.612;2023-05-09T05:19:09;3.67;;;2.20;;
21901;SDS011;11115;46.038;14.612;2023-05-09T05:21:41;3.23;;;1.90;;
21901;SDS011;11115;46.038;14.612;2023-05-09T05:24:11;2.63;;;1.90;;
21901;SDS011;11115;46.038;14.612;2023-05-09T05:26:48;4.57;;;2.27;;
21901;SDS011;11115;46.038;14.612;2023-05-09T05:29:19;2.63;;;2.10;;
21901;SDS011;11115;46.038;14.612;2023-05-09T05:31:52;3.93;;;2.17;;
21901;SDS011;11115;46.038;14.612;2023-05-09T05:34:23;6.07;;;2.73;;
21901;SDS011;11115;46.038;14.612;2023-05-09T05:37:08;3.47;;;2.73;;
21901;SDS011;11115;46.038;14.612;2023-05-09T05:39:41;9.07;;;2.60;;
21901;SDS011;11115;46.038;14.612;2023-05-09T05:42:22;3.97;;;3.27;;
21901;SDS011;11115;46.038;14.612;2023-05-09T05:44:58;5.27;;;3.03;;
21901;SDS011;11115;46.038;14.612;2023-05-09T05:47:38;3.33;;;2.30;;
21901;SDS011;11115;46.038;14.612;2023-05-09T05:50:20;4.37;;;2.97;;
21901;SDS011;11115;46.038;14.612;2023-05-09T05:52:51;3.50;;;2.23;;
21901;SDS011;11115;46.038;14.612;2023-05-09T05:55:38;2.80;;;2.20;;
21901;SDS011;11115;46.038;14.612;2023-05-09T05:58:10;2.87;;;2.37;;
21901;SDS011;11115;46.038;14.612;2023-05-09T06:00:46;3.73;;;2.60;;
21901;SDS011;11115;46.038;14.612;2023-05-09T06:03:22;5.37;;;2.70;;
21901;SDS011;11115;46.038;14.612;2023-05-09T06:06:09;2.67;;;2.03;;
21901;SDS011;11115;46.038;14.612;2023-05-09T06:08:42;4.03;;;2.60;;
21901;SDS011;11115;46.038;14.612;2023-05-09T06:11:14;4.30;;;2.70;;
21901;SDS011;11115;46.038;14.612;2023-05-09T06:13:50;4.93;;;2.37;;
21901;SDS011;11115;46.038;14.612;2023-05-09T06:16:24;3.17;;;2.47;;
21901;SDS011;11115;46.038;14.612;2023-05-09T06:18:55;3.67;;;2.73;;
21901;SDS011;11115;46.038;14.612;2023-05-09T06:21:23;5.90;;;2.90;;
21901;SDS011;11115;46.038;14.612;2023-05-09T06:24:00;3.23;;;2.50;;
21901;SDS011;11115;46.038;14.612;2023-05-09T06:26:48;3.07;;;2.43;;
21901;SDS011;11115;46.038;14.612;2023-05-09T06:29:21;4.17;;;2.43;;
21901;SDS011;11115;46.038;14.612;2023-05-09T06:32:05;4.03;;;2.80;;
21901;SDS011;11115;46.038;14.612;2023-05-09T06:34:36;11.10;;;2.83;;
21901;SDS011;11115;46.038;14.612;2023-05-09T06:37:07;5.30;;;3.20;;
21901;SDS011;11115;46.038;14.612;2023-05-09T06:39:39;3.73;;;2.93;;
21901;SDS011;11115;46.038;14.612;2023-05-09T06:42:09;4.33;;;2.60;;
21901;SDS011;11115;46.038;14.612;2023-05-09T06:44:53;7.63;;;2.83;;
21901;SDS011;11115;46.038;14.612;2023-05-09T06:47:32;2.93;;;1.90;;
21901;SDS011;11115;46.038;14.612;2023-05-09T06:50:02;4.60;;;3.15;;
21901;SDS011;11115;46.038;14.612;2023-05-09T06:52:33;4.80;;;3.03;;
21901;SDS011;11115;46.038;14.612;2023-05-09T06:55:01;4.17;;;2.73;;
21901;SDS011;11115;46.038;14.612;2023-05-09T06:57:32;4.90;;;2.77;;
21901;SDS011;11115;46.038;14.612;2023-05-09T07:00:12;3.27;;;2.57;;
21901;SDS011;11115;46.038;14.612;2023-05-09T07:02:43;4.57;;;2.63;;
21901;SDS011;11115;46.038;14.612;2023-05-09T07:05:14;5.20;;;2.70;;
21901;SDS011;11115;46.038;14.612;2023-05-09T07:07:46;6.77;;;2.73;;
21901;SDS011;11115;46.038;14.612;2023-05-09T07:10:16;4.80;;;2.73;;
21901;SDS011;11115;46.038;14.612;2023-05-09T07:12:48;6.33;;;2.57;;
21901;SDS011;11115;46.038;14.612;2023-05-09T07:15:21;3.70;;;2.47;;
21901;SDS011;11115;46.038;14.612;2023-05-09T07:18:06;4.20;;;2.53;;
21901;SDS011;11115;46.038;14.612;2023-05-09T07:20:39;5.60;;;3.07;;
21901;SDS011;11115;46.038;14.612;2023-05-09T07:23:23;3.57;;;2.23;;
21901;SDS011;11115;46.038;14.612;2023-05-09T07:25:56;5.20;;;2.80;;
21901;SDS011;11115;46.038;14.612;2023-05-09T07:28:28;4.40;;;2.25;;
21901;SDS011;11115;46.038;14.612;2023-05-09T07:30:59;4.30;;;2.55;;
21901;SDS011;11115;46.038;14.612;2023-05-09T07:33:32;2.20;;;2.00;;
21901;SDS011;11115;46.038;14.612;2023-05-09T07:38:48;4.53;;;2.83;;
21901;SDS011;11115;46.038;14.612;2023-05-09T07:41:23;5.57;;;2.30;;
21901;SDS011;11115;46.038;14.612;2023-05-09T07:43:53;4.23;;;2.23;;
21901;SDS011;11115;46.038;14.612;2023-05-09T07:46:27;4.03;;;2.47;;
21901;SDS011;11115;46.038;14.612;2023-05-09T07:49:01;4.17;;;2.17;;
21901;SDS011;11115;46.038;14.612;2023-05-09T07:51:34;2.97;;;2.30;;
21901;SDS011;11115;46.038;14.612;2023-05-09T07:54:05;2.53;;;2.27;;
21901;SDS011;11115;46.038;14.612;2023-05-09T07:56:42;3.93;;;2.37;;
21901;SDS011;11115;46.038;14.612;2023-05-09T07:59:24;3.83;;;2.27;;
21901;SDS011;11115;46.038;14.612;2023-05-09T08:01:56;7.77;;;2.57;;
21901;SDS011;11115;46.038;14.612;2023-05-09T08:04:34;3.57;;;2.17;;
21901;SDS011;11115;46.038;14.612;2023-05-09T08:07:18;4.20;;;2.07;;
21901;SDS011;11115;46.038;14.612;2023-05-09T08:09:55;4.00;;;2.93;;
21901;SDS011;11115;46.038;14.612;2023-05-09T08:12:25;2.40;;;1.70;;
21901;SDS011;11115;46.038;14.612;2023-05-09T08:14:58;3.57;;;2.20;;
21901;SDS011;11115;46.038;14.612;2023-05-09T08:17:29;3.93;;;2.40;;
21901;SDS011;11115;46.038;14.612;2023-05-09T08:20:08;1.80;;;1.70;;
21901;SDS011;11115;46.038;14.612;2023-05-09T08:22:45;3.50;;;2.17;;
21901;SDS011;11115;46.038;14.612;2023-05-09T08:25:19;3.70;;;2.37;;
21901;SDS011;11115;46.038;14.612;2023-05-09T08:28:03;2.60;;;1.93;;
21901;SDS011;11115;46.038;14.612;2023-05-09T08:30:44;6.20;;;2.57;;
21901;SDS011;11115;46.038;14.612;2023-05-09T08:33:17;2.93;;;2.17;;
21901;SDS011;11115;46.038;14.612;2023-05-09T08:36:00;3.43;;;2.50;;
21901;SDS011;11115;46.038;14.612;2023-05-09T08:38:45;3.70;;;2.20;;
21901;SDS011;11115;46.038;14.612;2023-05-09T08:41:23;4.37;;;2.13;;
21901;SDS011;11115;46.038;14.612;2023-05-09T08:44:00;3.17;;;2.00;;
21901;SDS011;11115;46.038;14.612;2023-05-09T08:46:41;3.58;;;1.90;;
21901;SDS011;11115;46.038;14.612;2023-05-09T08:49:19;5.30;;;2.37;;
21901;SDS011;11115;46.038;14.612;2023-05-09T08:51:55;2.53;;;2.20;;
21901;SDS011;11115;46.038;14.612;2023-05-09T08:54:36;2.27;;;1.63;;
21901;SDS011;11115;46.038;14.612;2023-05-09T08:57:07;2.00;;;1.80;;
21901;SDS011;11115;46.038;14.612;2023-05-09T08:59:44;3.77;;;1.97;;
21901;SDS011;11115;46.038;14.612;2023-05-09T09:02:15;3.37;;;2.13;;
21901;SDS011;11115;46.038;14.612;2023-05-09T09:04:46;4.40;;;2.57;;
21901;SDS011;11115;46.038;14.612;2023-05-09T09:07:20;3.00;;;2.00;;
21901;SDS011;11115;46.038;14.612;2023-05-09T09:10:00;3.27;;;2.17;;
21901;SDS011;11115;46.038;14.612;2023-05-09T09:12:42;2.63;;;2.30;;
21901;SDS011;11115;46.038;14.612;2023-05-09T09:15:16;2.33;;;1.93;;
21901;SDS011;11115;46.038;14.612;2023-05-09T09:17:57;2.90;;;1.80;;
21901;SDS011;11115;46.038;14.612;2023-05-09T09:20:40;2.80;;;1.80;;
21901;SDS011;11115;46.038;14.612;2023-05-09T09:23:17;3.10;;;1.70;;
21901;SDS011;11115;46.038;14.612;2023-05-09T09:25:48;4.27;;;1.80;;
21901;SDS011;11115;46.038;14.612;2023-05-09T09:28:26;5.70;;;2.70;;
21901;SDS011;11115;46.038;14.612;2023-05-09T09:30:57;3.08;;;2.05;;
21901;SDS011;11115;46.038;14.612;2023-05-09T09:33:39;3.73;;;1.90;;
21901;SDS011;11115;46.038;14.612;2023-05-09T09:36:29;3.17;;;2.00;;
21901;SDS011;11115;46.038;14.612;2023-05-09T09:39:08;6.73;;;1.70;;
21901;SDS011;11115;46.038;14.612;2023-05-09T09:41:43;2.17;;;1.50;;
21901;SDS011;11115;46.038;14.612;2023-05-09T09:44:15;3.73;;;1.60;;
21901;SDS011;11115;46.038;14.612;2023-05-09T09:46:51;3.87;;;1.70;;
21901;SDS011;11115;46.038;14.612;2023-05-09T09:49:23;4.93;;;1.77;;
21901;SDS011;11115;46.038;14.612;2023-05-09T09:51:56;3.83;;;2.10;;
21901;SDS011;11115;46.038;14.612;2023-05-09T09:54:30;2.40;;;1.47;;
21901;SDS011;11115;46.038;14.612;2023-05-09T09:57:32;5.00;;;1.80;;
21901;SDS011;11115;46.038;14.612;2023-05-09T10:00:08;4.57;;;1.70;;
21901;SDS011;11115;46.038;14.612;2023-05-09T10:02:51;1.83;;;1.13;;
21901;SDS011;11115;46.038;14.612;2023-05-09T10:05:32;2.73;;;1.50;;
21901;SDS011;11115;46.038;14.612;2023-05-09T10:08:07;4.77;;;1.93;;
21901;SDS011;11115;46.038;14.612;2023-05-09T10:10:39;2.40;;;1.63;;
21901;SDS011;11115;46.038;14.612;2023-05-09T10:13:15;3.33;;;2.03;;
21901;SDS011;11115;46.038;14.612;2023-05-09T10:15:46;2.03;;;1.43;;
21901;SDS011;11115;46.038;14.612;2023-05-09T10:18:24;2.27;;;1.47;;
21901;SDS011;11115;46.038;14.612;2023-05-09T10:20:59;1.92;;;1.30;;
21901;SDS011;11115;46.038;14.612;2023-05-09T10:23:33;1.63;;;1.40;;
21901;SDS011;11115;46.038;14.612;2023-05-09T10:26:22;1.67;;;1.00;;
21901;SDS011;11115;46.038;14.612;2023-05-09T10:28:58;2.03;;;1.58;;
21901;SDS011;11115;46.038;14.612;2023-05-09T10:31:33;2.07;;;1.63;;
21901;SDS011;11115;46.038;14.612;2023-05-09T10:34:08;2.73;;;1.43;;
21901;SDS011;11115;46.038;14.612;2023-05-09T10:36:40;1.37;;;1.00;;
21901;SDS011;11115;46.038;14.612;2023-05-09T10:39:14;1.60;;;1.20;;
21901;SDS011;11115;46.038;14.612;2023-05-09T10:41:45;1.58;;;0.88;;
21901;SDS011;11115;46.038;14.612;2023-05-09T10:44:31;4.97;;;0.95;;
21901;SDS011;11115;46.038;14.612;2023-05-09T10:47:03;2.03;;;1.10;;
21901;SDS011;11115;46.038;14.612;2023-05-09T10:49:42;2.83;;;1.33;;
21901;SDS011;11115;46.038;14.612;2023-05-09T10:52:16;12.17;;;1.20;;
21901;SDS011;11115;46.038;14.612;2023-05-09T10:54:58;1.08;;;1.05;;
21901;SDS011;11115;46.038;14.612;2023-05-09T10:57:35;1.63;;;1.07;;
21901;SDS011;11115;46.038;14.612;2023-05-09T11:00:23;2.15;;;1.25;;
21901;SDS011;11115;46.038;14.612;2023-05-09T11:03:05;1.52;;;0.95;;
21901;SDS011;11115;46.038;14.612;2023-05-09T11:05:42;1.42;;;1.33;;
21901;SDS011;11115;46.038;14.612;2023-05-09T11:08:26;0.73;;;0.73;;
21901;SDS011;11115;46.038;14.612;2023-05-09T11:11:05;2.53;;;1.17;;
21901;SDS011;11115;46.038;14.612;2023-05-09T11:13:56;0.90;;;0.90;;
21901;SDS011;11115;46.038;14.612;2023-05-09T11:16:37;1.35;;;0.80;;
21901;SDS011;11115;46.038;14.612;2023-05-09T11:20:12;1.08;;;0.98;;
21901;SDS011;11115;46.038;14.612;2023-05-09T11:22:28;0.68;;;0.68;;
21901;SDS011;11115;46.038;14.612;2023-05-09T11:25:04;1.30;;;1.20;;
21901;SDS011;11115;46.038;14.612;2023-05-09T11:27:44;1.02;;;0.80;;
21901;SDS011;11115;46.038;14.612;2023-05-09T11:30:18;1.73;;;1.50;;
21901;SDS011;11115;46.038;14.612;2023-05-09T11:32:52;1.70;;;0.65;;
21901;SDS011;11115;46.038;14.612;2023-05-09T11:35:26;2.08;;;1.10;;
21901;SDS011;11115;46.038;14.612;2023-05-09T11:38:04;1.10;;;0.82;;
21901;SDS011;11115;46.038;14.612;2023-05-09T11:40:37;0.82;;;0.82;;
21901;SDS011;11115;46.038;14.612;2023-05-09T11:43:09;1.10;;;0.95;;
21901;SDS011;11115;46.038;14.612;2023-05-09T11:45:40;0.80;;;0.80;;
21901;SDS011;11115;46.038;14.612;2023-05-09T11:48:25;0.70;;;0.65;;
21901;SDS011;11115;46.038;14.612;2023-05-09T11:50:58;0.95;;;0.90;;
21901;SDS011;11115;46.038;14.612;2023-05-09T11:53:39;0.57;;;0.57;;
21901;SDS011;11115;46.038;14.612;2023-05-09T11:56:14;0.88;;;0.88;;
21901;SDS011;11115;46.038;14.612;2023-05-09T11:58:49;2.80;;;1.10;;
21901;SDS011;11115;46.038;14.612;2023-05-09T12:01:21;5.25;;;1.63;;
21901;SDS011;11115;46.038;14.612;2023-05-09T12:04:00;0.63;;;0.52;;
21901;SDS011;11115;46.038;14.612;2023-05-09T12:06:34;1.23;;;0.70;;
21901;SDS011;11115;46.038;14.612;2023-05-09T12:09:14;1.52;;;0.63;;
21901;SDS011;11115;46.038;14.612;2023-05-09T12:12:11;1.33;;;1.08;;
21901;SDS011;11115;46.038;14.612;2023-05-09T12:14:41;0.70;;;0.60;;
21901;SDS011;11115;46.038;14.612;2023-05-09T12:17:14;1.73;;;0.77;;
21901;SDS011;11115;46.038;14.612;2023-05-09T12:19:44;0.68;;;0.52;;
21901;SDS011;11115;46.038;14.612;2023-05-09T12:22:16;0.52;;;0.52;;
21901;SDS011;11115;46.038;14.612;2023-05-09T12:24:50;0.85;;;0.70;;
21901;SDS011;11115;46.038;14.612;2023-05-09T12:27:20;0.50;;;0.50;;
21901;SDS011;11115;46.038;14.612;2023-05-09T12:29:56;1.42;;;0.60;;
21901;SDS011;11115;46.038;14.612;2023-05-09T12:32:41;0.50;;;0.40;;
21901;SDS011;11115;46.038;14.612;2023-05-09T12:35:21;0.60;;;0.60;;
21901;SDS011;11115;46.038;14.612;2023-05-09T12:37:56;2.92;;;1.17;;
21901;SDS011;11115;46.038;14.612;2023-05-09T12:40:25;0.85;;;0.82;;
21901;SDS011;11115;46.038;14.612;2023-05-09T12:42:57;1.05;;;0.75;;
21901;SDS011;11115;46.038;14.612;2023-05-09T12:46:02;1.17;;;0.88;;
21901;SDS011;11115;46.038;14.612;2023-05-09T12:48:43;1.00;;;0.90;;
21901;SDS011;11115;46.038;14.612;2023-05-09T12:51:19;0.82;;;0.65;;
21901;SDS011;11115;46.038;14.612;2023-05-09T12:53:50;1.00;;;0.52;;
21901;SDS011;11115;46.038;14.612;2023-05-09T12:56:31;0.68;;;0.68;;
21901;SDS011;11115;46.038;14.612;2023-05-09T12:59:02;0.60;;;0.60;;
21901;SDS011;11115;46.038;14.612;2023-05-09T13:01:34;0.80;;;0.80;;
21901;SDS011;11115;46.038;14.612;2023-05-09T13:04:13;1.40;;;0.68;;
21901;SDS011;11115;46.038;14.612;2023-05-09T13:06:51;0.88;;;0.60;;
21901;SDS011;11115;46.038;14.612;2023-05-09T13:09:22;0.95;;;0.68;;
21901;SDS011;11115;46.038;14.612;2023-05-09T13:11:52;0.52;;;0.47;;
21901;SDS011;11115;46.038;14.612;2023-05-09T13:14:23;1.13;;;0.88;;
21901;SDS011;11115;46.038;14.612;2023-05-09T13:16:52;1.42;;;0.63;;
21901;SDS011;11115;46.038;14.612;2023-05-09T13:19:24;1.05;;;0.63;;
21901;SDS011;11115;46.038;14.612;2023-05-09T13:21:58;0.65;;;0.63;;
21901;SDS011;11115;46.038;14.612;2023-05-09T13:24:30;1.60;;;0.88;;
21901;SDS011;11115;46.038;14.612;2023-05-09T13:27:01;1.17;;;0.50;;
21901;SDS011;11115;46.038;14.612;2023-05-09T13:29:32;0.32;;;0.32;;
21901;SDS011;11115;46.038;14.612;2023-05-09T13:32:02;0.60;;;0.60;;
21901;SDS011;11115;46.038;14.612;2023-05-09T13:34:43;0.82;;;0.80;;
21901;SDS011;11115;46.038;14.612;2023-05-09T13:37:15;2.15;;;0.50;;
21901;SDS011;11115;46.038;14.612;2023-05-09T13:39:59;0.85;;;0.73;;
21901;SDS011;11115;46.038;14.612;2023-05-09T13:42:35;0.38;;;0.38;;
21901;SDS011;11115;46.038;14.612;2023-05-09T13:45:04;0.77;;;0.47;;
21901;SDS011;11115;46.038;14.612;2023-05-09T13:47:43;0.68;;;0.50;;
21901;SDS011;11115;46.038;14.612;2023-05-09T13:50:14;0.50;;;0.50;;
21901;SDS011;11115;46.038;14.612;2023-05-09T13:52:46;0.80;;;0.80;;
21901;SDS011;11115;46.038;14.612;2023-05-09T13:55:18;0.50;;;0.47;;
21901;SDS011;11115;46.038;14.612;2023-05-09T13:57:49;2.25;;;1.10;;
21901;SDS011;11115;46.038;14.612;2023-05-09T14:00:20;0.60;;;0.60;;
21901;SDS011;11115;46.038;14.612;2023-05-09T14:02:54;1.52;;;0.82;;
21901;SDS011;11115;46.038;14.612;2023-05-09T14:08:01;0.57;;;0.57;;
21901;SDS011;11115;46.038;14.612;2023-05-09T14:10:37;0.73;;;0.50;;
21901;SDS011;11115;46.038;14.612;2023-05-09T14:13:10;0.68;;;0.60;;
21901;SDS011;11115;46.038;14.612;2023-05-09T14:15:58;1.92;;;0.65;;
21901;SDS011;11115;46.038;14.612;2023-05-09T14:18:33;0.35;;;0.35;;
21901;SDS011;11115;46.038;14.612;2023-05-09T14:21:05;0.50;;;0.50;;
21901;SDS011;11115;46.038;14.612;2023-05-09T14:23:40;0.50;;;0.40;;
21901;SDS011;11115;46.038;14.612;2023-05-09T14:26:09;0.90;;;0.52;;
21901;SDS011;11115;46.038;14.612;2023-05-09T14:28:51;0.93;;;0.70;;
21901;SDS011;11115;46.038;14.612;2023-05-09T14:31:33;0.32;;;0.32;;
21901;SDS011;11115;46.038;14.612;2023-05-09T14:34:06;0.40;;;0.40;;
21901;SDS011;11115;46.038;14.612;2023-05-09T14:36:36;3.25;;;0.70;;
21901;SDS011;11115;46.038;14.612;2023-05-09T14:39:05;0.35;;;0.35;;
21901;SDS011;11115;46.038;14.612;2023-05-09T14:41:36;0.32;;;0.32;;
21901;SDS011;11115;46.038;14.612;2023-05-09T14:44:07;1.55;;;0.40;;
21901;SDS011;11115;46.038;14.612;2023-05-09T14:46:38;1.10;;;0.63;;
21901;SDS011;11115;46.038;14.612;2023-05-09T14:49:12;0.40;;;0.40;;
21901;SDS011;11115;46.038;14.612;2023-05-09T14:51:46;0.50;;;0.50;;
21901;SDS011;11115;46.038;14.612;2023-05-09T14:54:25;2.60;;;0.70;;
21901;SDS011;11115;46.038;14.612;2023-05-09T14:56:55;0.40;;;0.40;;
21901;SDS011;11115;46.038;14.612;2023-05-09T14:59:28;0.50;;;0.50;;
21901;SDS011;11115;46.038;14.612;2023-05-09T15:02:06;0.50;;;0.45;;
21901;SDS011;11115;46.038;14.612;2023-05-09T15:04:49;0.40;;;0.40;;
21901;SDS011;11115;46.038;14.612;2023-05-09T15:07:26;4.47;;;0.47;;
21901;SDS011;11115;46.038;14.612;2023-05-09T15:10:19;1.38;;;0.60;;
21901;SDS011;11115;46.038;14.612;2023-05-09T15:12:51;0.50;;;0.43;;
21901;SDS011;11115;46.038;14.612;2023-05-09T15:15:32;0.40;;;0.40;;
21901;SDS011;11115;46.038;14.612;2023-05-09T15:18:09;0.52;;;0.45;;
21901;SDS011;11115;46.038;14.612;2023-05-09T15:20:51;0.35;;;0.35;;
21901;SDS011;11115;46.038;14.612;2023-05-09T15:23:20;0.77;;;0.50;;
21901;SDS011;11115;46.038;14.612;2023-05-09T15:25:51;0.88;;;0.73;;
21901;SDS011;11115;46.038;14.612;2023-05-09T15:28:38;0.73;;;0.73;;
21901;SDS011;11115;46.038;14.612;2023-05-09T15:31:13;1.17;;;0.68;;
21901;SDS011;11115;46.038;14.612;2023-05-09T15:33:50;0.95;;;0.45;;
21901;SDS011;11115;46.038;14.612;2023-05-09T15:38:54;0.40;;;0.35;;
21901;SDS011;11115;46.038;14.612;2023-05-09T15:41:30;2.08;;;0.50;;
21901;SDS011;11115;46.038;14.612;2023-05-09T15:44:07;0.57;;;0.40;;
21901;SDS011;11115;46.038;14.612;2023-05-09T15:46:39;0.30;;;0.30;;